sensor_id;sensor_type;location;lat;lon;timestamp;pressure;altitude;pressure_sealevel;temperature;humidity
60240;BME280;46102;39.012;-7.064;2023-06-05T00:00:16;98193.50;;;21.73;63.79
60240;BME280;46102;39.012;-7.064;2023-06-05T00:02:17;98195.09;;;21.71;63.65
60240;BME280;46102;39.012;-7.064;2023-06-05T00:04:17;98196.28;;;21.73;63.31
60240;BME280;46102;39.012;-7.064;2023-06-05T00:06:18;98194.28;;;21.74;63.14
60240;BME280;46102;39.012;-7.064;2023-06-05T00:08:19;98189.09;;;21.72;63.24
60240;BME280;46102;39.012;-7.064;2023-06-05T00:10:20;98183.91;;;21.74;62.72
60240;BME280;46102;39.012;-7.064;2023-06-05T00:12:21;98190.28;;;21.75;62.86
60240;BME280;46102;39.012;-7.064;2023-06-05T00:14:22;98187.50;;;21.78;62.34
60240;BME280;46102;39.012;-7.064;2023-06-05T00:16:23;98186.31;;;21.83;62.28
60240;BME280;46102;39.012;-7.064;2023-06-05T00:18:24;98185.13;;;21.80;62.37
60240;BME280;46102;39.012;-7.064;2023-06-05T00:20:25;98183.13;;;21.81;62.13
60240;BME280;46102;39.012;-7.064;2023-06-05T00:22:26;98189.09;;;21.83;61.61
60240;BME280;46102;39.012;-7.064;2023-06-05T00:24:28;98180.31;;;21.88;61.17
60240;BME280;46102;39.012;-7.064;2023-06-05T00:26:29;98186.72;;;21.89;61.27
60240;BME280;46102;39.012;-7.064;2023-06-05T00:28:30;98187.88;;;21.88;61.02
60240;BME280;46102;39.012;-7.064;2023-06-05T00:30:31;98190.28;;;21.89;61.27
60240;BME280;46102;39.012;-7.064;2023-06-05T00:32:32;98189.09;;;21.87;61.02
60240;BME280;46102;39.012;-7.064;2023-06-05T00:34:32;98193.88;;;21.82;61.13
60240;BME280;46102;39.012;-7.064;2023-06-05T00:36:33;98195.88;;;21.82;61.35
60240;BME280;46102;39.012;-7.064;2023-06-05T00:38:34;98199.88;;;21.81;61.35
60240;BME280;46102;39.012;-7.064;2023-06-05T00:40:35;98198.28;;;21.80;61.39
60240;BME280;46102;39.012;-7.064;2023-06-05T00:42:35;98203.03;;;21.79;61.89
60240;BME280;46102;39.012;-7.064;2023-06-05T00:44:36;98190.72;;;21.73;63.20
60240;BME280;46102;39.012;-7.064;2023-06-05T00:46:38;98194.31;;;21.59;64.26
60240;BME280;46102;39.012;-7.064;2023-06-05T00:48:40;98189.94;;;21.44;65.75
60240;BME280;46102;39.012;-7.064;2023-06-05T00:50:41;98182.72;;;21.39;66.93
60240;BME280;46102;39.012;-7.064;2023-06-05T00:52:42;98178.34;;;21.24;68.60
60240;BME280;46102;39.012;-7.064;2023-06-05T00:54:44;98184.69;;;21.07;69.09
60240;BME280;46102;39.012;-7.064;2023-06-05T00:56:45;98187.06;;;20.97;69.70
60240;BME280;46102;39.012;-7.064;2023-06-05T00:58:47;98177.88;;;20.93;69.95
60240;BME280;46102;39.012;-7.064;2023-06-05T01:00:48;98179.06;;;20.89;70.14
60240;BME280;46102;39.012;-7.064;2023-06-05T01:02:50;98179.88;;;20.86;70.49
60240;BME280;46102;39.012;-7.064;2023-06-05T01:04:55;98172.69;;;20.85;70.85
60240;BME280;46102;39.012;-7.064;2023-06-05T01:06:59;98180.66;;;20.86;71.96
60240;BME280;46102;39.012;-7.064;2023-06-05T01:09:02;98185.44;;;20.78;72.42
60240;BME280;46102;39.012;-7.064;2023-06-05T01:11:05;98182.22;;;20.80;72.97
60240;BME280;46102;39.012;-7.064;2023-06-05T01:13:15;98183.44;;;20.79;73.74
60240;BME280;46102;39.012;-7.064;2023-06-05T01:15:23;98184.22;;;20.72;73.96
60240;BME280;46102;39.012;-7.064;2023-06-05T01:17:30;98174.66;;;20.70;74.26
60240;BME280;46102;39.012;-7.064;2023-06-05T01:19:33;98175.81;;;20.62;74.79
60240;BME280;46102;39.012;-7.064;2023-06-05T01:21:34;98172.25;;;20.61;74.37
60240;BME280;46102;39.012;-7.064;2023-06-05T01:23:36;98173.81;;;20.62;74.38
60240;BME280;46102;39.012;-7.064;2023-06-05T01:25:37;98174.63;;;20.66;74.26
60240;BME280;46102;39.012;-7.064;2023-06-05T01:27:43;98175.03;;;20.68;73.99
60240;BME280;46102;39.012;-7.064;2023-06-05T01:29:59;98173.47;;;20.67;74.43
60240;BME280;46102;39.012;-7.064;2023-06-05T01:32:06;98173.03;;;20.62;74.14
60240;BME280;46102;39.012;-7.064;2023-06-05T01:34:13;98179.81;;;20.61;74.29
60240;BME280;46102;39.012;-7.064;2023-06-05T01:36:21;98177.81;;;20.61;74.01
60240;BME280;46102;39.012;-7.064;2023-06-05T01:38:22;98179.81;;;20.61;73.88
60240;BME280;46102;39.012;-7.064;2023-06-05T01:40:24;98186.59;;;20.63;73.58
60240;BME280;46102;39.012;-7.064;2023-06-05T01:42:26;98184.56;;;20.60;73.04
60240;BME280;46102;39.012;-7.064;2023-06-05T01:44:28;98182.97;;;20.59;73.00
60240;BME280;46102;39.012;-7.064;2023-06-05T01:46:29;98182.19;;;20.62;72.43
60240;BME280;46102;39.012;-7.064;2023-06-05T01:48:30;98182.59;;;20.64;71.91
60240;BME280;46102;39.012;-7.064;2023-06-05T01:50:34;98179.00;;;20.64;71.57
60240;BME280;46102;39.012;-7.064;2023-06-05T01:52:36;98183.38;;;20.65;71.23
60240;BME280;46102;39.012;-7.064;2023-06-05T01:54:40;98181.41;;;20.62;71.23
60240;BME280;46102;39.012;-7.064;2023-06-05T01:56:42;98190.13;;;20.60;71.16
60240;BME280;46102;39.012;-7.064;2023-06-05T01:58:44;98187.75;;;20.58;71.45
60240;BME280;46102;39.012;-7.064;2023-06-05T02:00:45;98182.97;;;20.59;70.95
60240;BME280;46102;39.012;-7.064;2023-06-05T02:02:47;98183.78;;;20.59;71.00
60240;BME280;46102;39.012;-7.064;2023-06-05T02:04:48;98179.00;;;20.60;71.43
60240;BME280;46102;39.012;-7.064;2023-06-05T02:06:49;98178.19;;;20.59;71.42
60240;BME280;46102;39.012;-7.064;2023-06-05T02:08:53;98177.03;;;20.61;71.57
60240;BME280;46102;39.012;-7.064;2023-06-05T02:10:54;98171.00;;;20.55;71.46
60240;BME280;46102;39.012;-7.064;2023-06-05T02:12:55;98168.59;;;20.53;72.02
60240;BME280;46102;39.012;-7.064;2023-06-05T02:14:56;98172.56;;;20.52;72.13
60240;BME280;46102;39.012;-7.064;2023-06-05T02:16:57;98174.56;;;20.55;71.45
60240;BME280;46102;39.012;-7.064;2023-06-05T02:18:58;98166.59;;;20.50;71.65
60240;BME280;46102;39.012;-7.064;2023-06-05T02:21:04;98166.97;;;20.45;71.85
60240;BME280;46102;39.012;-7.064;2023-06-05T02:23:05;98164.97;;;20.42;72.30
60240;BME280;46102;39.012;-7.064;2023-06-05T02:25:06;98164.97;;;20.38;72.23
60240;BME280;46102;39.012;-7.064;2023-06-05T02:27:07;98161.38;;;20.38;72.17
60240;BME280;46102;39.012;-7.064;2023-06-05T02:29:08;98163.78;;;20.36;72.34
60240;BME280;46102;39.012;-7.064;2023-06-05T02:31:09;98151.84;;;20.35;72.38
60240;BME280;46102;39.012;-7.064;2023-06-05T02:33:17;98155.81;;;20.38;72.32
60240;BME280;46102;39.012;-7.064;2023-06-05T02:35:18;98153.03;;;20.42;72.25
60240;BME280;46102;39.012;-7.064;2023-06-05T02:37:19;98153.44;;;20.44;72.44
60240;BME280;46102;39.012;-7.064;2023-06-05T02:39:23;98152.66;;;20.43;71.79
60240;BME280;46102;39.012;-7.064;2023-06-05T02:41:24;98143.91;;;20.45;72.04
60240;BME280;46102;39.012;-7.064;2023-06-05T02:43:25;98152.25;;;20.45;71.47
60240;BME280;46102;39.012;-7.064;2023-06-05T02:45:26;98151.84;;;20.46;71.21
60240;BME280;46102;39.012;-7.064;2023-06-05T02:47:27;98151.44;;;20.44;71.31
60240;BME280;46102;39.012;-7.064;2023-06-05T02:49:28;98153.81;;;20.42;71.18
60240;BME280;46102;39.012;-7.064;2023-06-05T02:51:29;98149.06;;;20.35;71.31
60240;BME280;46102;39.012;-7.064;2023-06-05T02:53:31;98147.03;;;20.32;71.33
60240;BME280;46102;39.012;-7.064;2023-06-05T02:55:32;98153.41;;;20.29;71.40
60240;BME280;46102;39.012;-7.064;2023-06-05T02:57:36;98151.38;;;20.26;71.65
60240;BME280;46102;39.012;-7.064;2023-06-05T02:59:44;98149.00;;;20.25;71.87
60240;BME280;46102;39.012;-7.064;2023-06-05T03:01:49;98151.78;;;20.25;71.83
60240;BME280;46102;39.012;-7.064;2023-06-05T03:03:51;98156.94;;;20.23;72.17
60240;BME280;46102;39.012;-7.064;2023-06-05T03:05:53;98159.34;;;20.24;72.51
60240;BME280;46102;39.012;-7.064;2023-06-05T03:07:53;98159.34;;;20.24;72.99
60240;BME280;46102;39.012;-7.064;2023-06-05T03:09:54;98159.72;;;20.23;73.32
60240;BME280;46102;39.012;-7.064;2023-06-05T03:11:55;98153.78;;;20.24;73.56
60240;BME280;46102;39.012;-7.064;2023-06-05T03:13:58;98151.00;;;20.24;73.85
60240;BME280;46102;39.012;-7.064;2023-06-05T03:16:02;98145.41;;;20.21;74.16
60240;BME280;46102;39.012;-7.064;2023-06-05T03:18:05;98156.13;;;20.18;74.26
60240;BME280;46102;39.012;-7.064;2023-06-05T03:20:06;98156.53;;;20.21;74.19
60240;BME280;46102;39.012;-7.064;2023-06-05T03:22:09;98152.97;;;20.20;74.55
60240;BME280;46102;39.012;-7.064;2023-06-05T03:24:13;98150.56;;;20.18;74.32
60240;BME280;46102;39.012;-7.064;2023-06-05T03:26:15;98155.34;;;20.18;74.45
60240;BME280;46102;39.012;-7.064;2023-06-05T03:28:17;98145.38;;;20.17;74.71
60240;BME280;46102;39.012;-7.064;2023-06-05T03:30:18;98139.00;;;20.16;74.69
60240;BME280;46102;39.012;-7.064;2023-06-05T03:32:22;98152.53;;;20.14;74.79
60240;BME280;46102;39.012;-7.064;2023-06-05T03:34:23;98150.94;;;20.13;75.06
60240;BME280;46102;39.012;-7.064;2023-06-05T03:36:27;98162.06;;;20.13;75.17
60240;BME280;46102;39.012;-7.064;2023-06-05T03:38:30;98160.47;;;20.09;75.27
60240;BME280;46102;39.012;-7.064;2023-06-05T03:40:31;98162.44;;;20.08;75.48
60240;BME280;46102;39.012;-7.064;2023-06-05T03:42:32;98156.41;;;19.95;75.61
60240;BME280;46102;39.012;-7.064;2023-06-05T03:44:33;98157.94;;;19.86;76.06
60240;BME280;46102;39.012;-7.064;2023-06-05T03:46:34;98157.47;;;19.76;76.39
60240;BME280;46102;39.012;-7.064;2023-06-05T03:48:37;98152.28;;;19.71;76.70
60240;BME280;46102;39.012;-7.064;2023-06-05T03:50:38;98155.06;;;19.71;76.70
60240;BME280;46102;39.012;-7.064;2023-06-05T03:52:41;98144.34;;;19.73;76.44
60240;BME280;46102;39.012;-7.064;2023-06-05T03:54:42;98141.97;;;19.75;76.56
60240;BME280;46102;39.012;-7.064;2023-06-05T03:56:45;98146.75;;;19.79;76.64
60240;BME280;46102;39.012;-7.064;2023-06-05T03:58:50;98136.03;;;19.81;76.44
60240;BME280;46102;39.012;-7.064;2023-06-05T04:00:52;98144.41;;;19.81;76.60
60240;BME280;46102;39.012;-7.064;2023-06-05T04:02:54;98139.63;;;19.81;76.49
60240;BME280;46102;39.012;-7.064;2023-06-05T04:04:56;98144.81;;;19.83;76.50
60240;BME280;46102;39.012;-7.064;2023-06-05T04:06:58;98149.16;;;19.80;76.51
60240;BME280;46102;39.012;-7.064;2023-06-05T04:09:01;98140.78;;;19.76;76.91
60240;BME280;46102;39.012;-7.064;2023-06-05T04:11:03;98140.00;;;19.72;77.06
60240;BME280;46102;39.012;-7.064;2023-06-05T04:13:04;98140.75;;;19.69;77.31
60240;BME280;46102;39.012;-7.064;2023-06-05T04:15:07;98139.88;;;19.65;77.49
60240;BME280;46102;39.012;-7.064;2023-06-05T04:17:10;98145.44;;;19.62;77.66
60240;BME280;46102;39.012;-7.064;2023-06-05T04:19:12;98145.81;;;19.60;78.08
60240;BME280;46102;39.012;-7.064;2023-06-05T04:21:16;98149.81;;;19.59;78.37
60240;BME280;46102;39.012;-7.064;2023-06-05T04:23:16;98148.19;;;19.54;78.51
60240;BME280;46102;39.012;-7.064;2023-06-05T04:25:18;98146.19;;;19.55;78.56
60240;BME280;46102;39.012;-7.064;2023-06-05T04:27:21;98144.22;;;19.55;78.70
60240;BME280;46102;39.012;-7.064;2023-06-05T04:29:22;98146.66;;;19.64;78.85
60240;BME280;46102;39.012;-7.064;2023-06-05T04:31:23;98147.78;;;19.56;79.14
60240;BME280;46102;39.012;-7.064;2023-06-05T04:33:26;98158.84;;;19.49;79.45
60240;BME280;46102;39.012;-7.064;2023-06-05T04:35:26;98161.22;;;19.47;79.85
60240;BME280;46102;39.012;-7.064;2023-06-05T04:37:27;98160.41;;;19.43;80.42
60240;BME280;46102;39.012;-7.064;2023-06-05T04:39:28;98158.78;;;19.38;80.43
60240;BME280;46102;39.012;-7.064;2023-06-05T04:41:31;98157.97;;;19.38;80.45
60240;BME280;46102;39.012;-7.064;2023-06-05T04:43:34;98159.59;;;19.39;80.59
60240;BME280;46102;39.012;-7.064;2023-06-05T04:45:35;98163.59;;;19.41;80.69
60240;BME280;46102;39.012;-7.064;2023-06-05T04:47:36;98155.66;;;19.43;80.47
60240;BME280;46102;39.012;-7.064;2023-06-05T04:49:37;98161.22;;;19.43;80.56
60240;BME280;46102;39.012;-7.064;2023-06-05T04:51:39;98160.41;;;19.43;80.68
60240;BME280;46102;39.012;-7.064;2023-06-05T04:53:42;98161.19;;;19.40;80.83
60240;BME280;46102;39.012;-7.064;2023-06-05T04:55:44;98165.94;;;19.39;80.81
60240;BME280;46102;39.012;-7.064;2023-06-05T04:57:45;98165.16;;;19.39;80.89
60240;BME280;46102;39.012;-7.064;2023-06-05T04:59:47;98158.03;;;19.41;80.89
60240;BME280;46102;39.012;-7.064;2023-06-05T05:01:49;98167.16;;;19.42;80.86
60240;BME280;46102;39.012;-7.064;2023-06-05T05:03:50;98164.78;;;19.44;80.68
60240;BME280;46102;39.012;-7.064;2023-06-05T05:05:52;98168.00;;;19.46;80.64
60240;BME280;46102;39.012;-7.064;2023-06-05T05:07:53;98162.03;;;19.47;80.29
60240;BME280;46102;39.012;-7.064;2023-06-05T05:09:54;98164.44;;;19.49;80.10
60240;BME280;46102;39.012;-7.064;2023-06-05T05:11:56;98161.63;;;19.49;79.88
60240;BME280;46102;39.012;-7.064;2023-06-05T05:13:57;98164.06;;;19.50;79.78
60240;BME280;46102;39.012;-7.064;2023-06-05T05:15:58;98168.00;;;19.46;79.82
60240;BME280;46102;39.012;-7.064;2023-06-05T05:18:00;98166.00;;;19.46;79.81
60240;BME280;46102;39.012;-7.064;2023-06-05T05:20:03;98167.22;;;19.49;79.72
60240;BME280;46102;39.012;-7.064;2023-06-05T05:22:07;98173.16;;;19.47;79.82
60240;BME280;46102;39.012;-7.064;2023-06-05T05:24:09;98172.78;;;19.49;79.91
60240;BME280;46102;39.012;-7.064;2023-06-05T05:26:09;98171.56;;;19.46;80.14
60240;BME280;46102;39.012;-7.064;2023-06-05T05:28:11;98179.53;;;19.48;80.08
60240;BME280;46102;39.012;-7.064;2023-06-05T05:30:13;98173.97;;;19.51;79.92
60240;BME280;46102;39.012;-7.064;2023-06-05T05:32:14;98176.75;;;19.51;79.69
60240;BME280;46102;39.012;-7.064;2023-06-05T05:34:16;98176.00;;;19.54;79.37
60240;BME280;46102;39.012;-7.064;2023-06-05T05:36:17;98183.56;;;19.58;79.19
60240;BME280;46102;39.012;-7.064;2023-06-05T05:38:19;98176.06;;;19.62;78.80
60240;BME280;46102;39.012;-7.064;2023-06-05T05:40:19;98175.66;;;19.63;78.46
60240;BME280;46102;39.012;-7.064;2023-06-05T05:42:20;98174.44;;;19.61;78.55
60240;BME280;46102;39.012;-7.064;2023-06-05T05:44:21;98183.19;;;19.59;78.54
60240;BME280;46102;39.012;-7.064;2023-06-05T05:46:22;98176.84;;;19.62;78.76
60240;BME280;46102;39.012;-7.064;2023-06-05T05:48:23;98190.78;;;19.66;78.56
60240;BME280;46102;39.012;-7.064;2023-06-05T05:50:24;98184.81;;;19.67;78.60
60240;BME280;46102;39.012;-7.064;2023-06-05T05:52:24;98188.47;;;19.71;78.32
60240;BME280;46102;39.012;-7.064;2023-06-05T05:54:25;98190.88;;;19.73;78.21
60240;BME280;46102;39.012;-7.064;2023-06-05T05:56:27;98192.91;;;19.80;78.06
60240;BME280;46102;39.012;-7.064;2023-06-05T05:58:29;98197.72;;;19.86;77.48
60240;BME280;46102;39.012;-7.064;2023-06-05T06:00:30;98190.19;;;19.94;77.27
60240;BME280;46102;39.012;-7.064;2023-06-05T06:02:31;98190.66;;;20.00;76.36
60240;BME280;46102;39.012;-7.064;2023-06-05T06:04:32;98199.78;;;20.04;76.32
60240;BME280;46102;39.012;-7.064;2023-06-05T06:06:33;98192.28;;;20.11;75.91
60240;BME280;46102;39.012;-7.064;2023-06-05T06:08:34;98199.88;;;20.18;75.39
60240;BME280;46102;39.012;-7.064;2023-06-05T06:10:35;98198.34;;;20.28;74.95
60240;BME280;46102;39.012;-7.064;2023-06-05T06:12:36;98199.19;;;20.39;74.53
60240;BME280;46102;39.012;-7.064;2023-06-05T06:14:37;98200.03;;;20.50;74.05
60240;BME280;46102;39.012;-7.064;2023-06-05T06:16:39;98195.72;;;20.56;73.48
60240;BME280;46102;39.012;-7.064;2023-06-05T06:18:40;98193.31;;;20.62;73.15
60240;BME280;46102;39.012;-7.064;2023-06-05T06:20:41;98196.97;;;20.70;72.57
60240;BME280;46102;39.012;-7.064;2023-06-05T06:22:42;98202.16;;;20.78;72.56
60240;BME280;46102;39.012;-7.064;2023-06-05T06:24:43;98195.41;;;20.87;71.99
60240;BME280;46102;39.012;-7.064;2023-06-05T06:26:44;98203.41;;;20.92;71.86
60240;BME280;46102;39.012;-7.064;2023-06-05T06:28:45;98210.16;;;20.91;71.51
60240;BME280;46102;39.012;-7.064;2023-06-05T06:30:45;98201.78;;;20.98;71.55
60240;BME280;46102;39.012;-7.064;2023-06-05T06:32:47;98203.81;;;21.08;71.29
60240;BME280;46102;39.012;-7.064;2023-06-05T06:34:48;98212.59;;;21.17;70.26
60240;BME280;46102;39.012;-7.064;2023-06-05T06:36:49;98213.41;;;21.21;70.06
60240;BME280;46102;39.012;-7.064;2023-06-05T06:38:50;98211.81;;;21.31;69.50
60240;BME280;46102;39.012;-7.064;2023-06-05T06:40:51;98207.84;;;21.32;69.42
60240;BME280;46102;39.012;-7.064;2023-06-05T06:42:52;98206.66;;;21.40;69.04
60240;BME280;46102;39.012;-7.064;2023-06-05T06:45:02;98198.28;;;21.48;69.02
60240;BME280;46102;39.012;-7.064;2023-06-05T06:47:04;98196.72;;;21.57;69.02
60240;BME280;46102;39.012;-7.064;2023-06-05T06:49:05;98197.09;;;21.67;68.73
60240;BME280;46102;39.012;-7.064;2023-06-05T06:51:06;98203.47;;;21.74;68.07
60240;BME280;46102;39.012;-7.064;2023-06-05T06:53:08;98206.63;;;21.83;67.58
60240;BME280;46102;39.012;-7.064;2023-06-05T06:55:08;98205.03;;;21.90;67.46
60240;BME280;46102;39.012;-7.064;2023-06-05T06:57:09;98206.22;;;22.07;66.98
60240;BME280;46102;39.012;-7.064;2023-06-05T06:59:14;98204.19;;;22.18;66.37
60240;BME280;46102;39.012;-7.064;2023-06-05T07:01:15;98210.56;;;22.26;65.47
60240;BME280;46102;39.012;-7.064;2023-06-05T07:03:15;98210.94;;;22.31;65.14
60240;BME280;46102;39.012;-7.064;2023-06-05T07:05:16;98210.53;;;22.43;64.79
60240;BME280;46102;39.012;-7.064;2023-06-05T07:07:20;98217.63;;;22.62;64.40
60240;BME280;46102;39.012;-7.064;2023-06-05T07:09:21;98218.34;;;22.81;63.84
60240;BME280;46102;39.012;-7.064;2023-06-05T07:11:25;98217.88;;;23.00;63.13
60240;BME280;46102;39.012;-7.064;2023-06-05T07:13:26;98221.44;;;23.04;62.08
60240;BME280;46102;39.012;-7.064;2023-06-05T07:15:27;98217.03;;;23.07;62.29
60240;BME280;46102;39.012;-7.064;2023-06-05T07:17:28;98216.97;;;23.14;61.60
60240;BME280;46102;39.012;-7.064;2023-06-05T07:19:31;98214.09;;;23.25;60.68
60240;BME280;46102;39.012;-7.064;2023-06-05T07:21:32;98220.16;;;23.20;60.04
60240;BME280;46102;39.012;-7.064;2023-06-05T07:23:38;98218.16;;;23.17;60.36
60240;BME280;46102;39.012;-7.064;2023-06-05T07:25:39;98223.75;;;23.20;60.60
60240;BME280;46102;39.012;-7.064;2023-06-05T07:27:40;98224.06;;;23.33;60.32
60240;BME280;46102;39.012;-7.064;2023-06-05T07:29:41;98231.16;;;23.48;60.23
60240;BME280;46102;39.012;-7.064;2023-06-05T07:31:41;98227.47;;;23.55;59.62
60240;BME280;46102;39.012;-7.064;2023-06-05T07:33:42;98232.25;;;23.58;58.68
60240;BME280;46102;39.012;-7.064;2023-06-05T07:35:43;98226.75;;;23.47;58.44
60240;BME280;46102;39.012;-7.064;2023-06-05T07:37:46;98221.44;;;23.60;58.27
60240;BME280;46102;39.012;-7.064;2023-06-05T07:39:46;98224.16;;;23.71;57.86
60240;BME280;46102;39.012;-7.064;2023-06-05T07:41:49;98222.56;;;23.70;59.32
60240;BME280;46102;39.012;-7.064;2023-06-05T07:43:50;98220.53;;;23.78;58.74
60240;BME280;46102;39.012;-7.064;2023-06-05T07:45:51;98220.03;;;23.86;58.55
60240;BME280;46102;39.012;-7.064;2023-06-05T07:47:51;98226.00;;;23.92;58.24
60240;BME280;46102;39.012;-7.064;2023-06-05T07:49:59;98230.63;;;24.09;57.84
60240;BME280;46102;39.012;-7.064;2023-06-05T07:52:00;98230.69;;;24.02;57.30
60240;BME280;46102;39.012;-7.064;2023-06-05T07:54:05;98229.81;;;24.09;57.18
60240;BME280;46102;39.012;-7.064;2023-06-05T07:56:06;98233.69;;;24.22;56.66
60240;BME280;46102;39.012;-7.064;2023-06-05T07:58:07;98233.56;;;24.33;56.50
60240;BME280;46102;39.012;-7.064;2023-06-05T08:00:09;98228.75;;;24.34;55.65
60240;BME280;46102;39.012;-7.064;2023-06-05T08:02:13;98231.06;;;24.42;55.39
60240;BME280;46102;39.012;-7.064;2023-06-05T08:04:14;98223.31;;;24.57;54.91
60240;BME280;46102;39.012;-7.064;2023-06-05T08:06:15;98239.47;;;24.42;54.88
60240;BME280;46102;39.012;-7.064;2023-06-05T08:08:16;98228.09;;;24.60;55.06
60240;BME280;46102;39.012;-7.064;2023-06-05T08:10:17;98229.59;;;24.68;54.76
60240;BME280;46102;39.012;-7.064;2023-06-05T08:12:18;98230.53;;;24.89;54.58
60240;BME280;46102;39.012;-7.064;2023-06-05T08:14:19;98231.94;;;25.04;53.07
60240;BME280;46102;39.012;-7.064;2023-06-05T08:16:22;98239.75;;;25.17;51.77
60240;BME280;46102;39.012;-7.064;2023-06-05T08:18:23;98240.81;;;25.30;51.29
60240;BME280;46102;39.012;-7.064;2023-06-05T08:20:24;98239.75;;;25.47;50.46
60240;BME280;46102;39.012;-7.064;2023-06-05T08:22:24;98235.72;;;25.48;50.39
60240;BME280;46102;39.012;-7.064;2023-06-05T08:24:25;98229.72;;;25.46;49.95
60240;BME280;46102;39.012;-7.064;2023-06-05T08:26:27;98228.94;;;25.46;50.04
60240;BME280;46102;39.012;-7.064;2023-06-05T08:28:28;98235.25;;;25.53;49.24
60240;BME280;46102;39.012;-7.064;2023-06-05T08:30:29;98233.72;;;25.49;49.45
60240;BME280;46102;39.012;-7.064;2023-06-05T08:32:29;98241.75;;;25.47;49.38
60240;BME280;46102;39.012;-7.064;2023-06-05T08:34:31;98241.91;;;25.36;50.52
60240;BME280;46102;39.012;-7.064;2023-06-05T08:36:32;98243.22;;;25.55;50.35
60240;BME280;46102;39.012;-7.064;2023-06-05T08:38:35;98234.59;;;25.69;49.50
60240;BME280;46102;39.012;-7.064;2023-06-05T08:40:37;98241.97;;;25.83;48.24
60240;BME280;46102;39.012;-7.064;2023-06-05T08:42:39;98240.72;;;25.88;48.39
60240;BME280;46102;39.012;-7.064;2023-06-05T08:44:40;98240.59;;;25.95;48.28
60240;BME280;46102;39.012;-7.064;2023-06-05T08:46:42;98243.41;;;25.95;47.36
60240;BME280;46102;39.012;-7.064;2023-06-05T08:48:45;98233.47;;;25.87;47.39
60240;BME280;46102;39.012;-7.064;2023-06-05T08:50:48;98236.94;;;25.71;47.63
60240;BME280;46102;39.012;-7.064;2023-06-05T08:52:50;98235.25;;;26.01;47.11
60240;BME280;46102;39.012;-7.064;2023-06-05T08:54:51;98236.41;;;26.27;46.69
60240;BME280;46102;39.012;-7.064;2023-06-05T08:56:53;98235.25;;;26.24;47.61
60240;BME280;46102;39.012;-7.064;2023-06-05T08:58:54;98243.00;;;26.60;45.95
60240;BME280;46102;39.012;-7.064;2023-06-05T09:00:56;98233.56;;;26.70;45.79
60240;BME280;46102;39.012;-7.064;2023-06-05T09:02:57;98243.41;;;26.98;45.62
60240;BME280;46102;39.012;-7.064;2023-06-05T09:04:59;98237.09;;;27.11;44.40
60240;BME280;46102;39.012;-7.064;2023-06-05T09:07:01;98230.53;;;27.17;44.39
60240;BME280;46102;39.012;-7.064;2023-06-05T09:09:02;98232.34;;;27.28;43.84
60240;BME280;46102;39.012;-7.064;2023-06-05T09:11:22;98238.41;;;27.26;42.84
60240;BME280;46102;39.012;-7.064;2023-06-05T09:13:23;98236.97;;;27.18;42.70
60240;BME280;46102;39.012;-7.064;2023-06-05T09:15:27;98244.75;;;27.10;42.92
60240;BME280;46102;39.012;-7.064;2023-06-05T09:17:28;98233.31;;;27.21;42.57
60240;BME280;46102;39.012;-7.064;2023-06-05T09:19:36;98244.94;;;27.39;42.14
60240;BME280;46102;39.012;-7.064;2023-06-05T09:21:38;98242.59;;;27.54;42.10
60240;BME280;46102;39.012;-7.064;2023-06-05T09:23:40;98238.09;;;27.73;41.32
60240;BME280;46102;39.012;-7.064;2023-06-05T09:25:46;98246.47;;;27.93;41.27
60240;BME280;46102;39.012;-7.064;2023-06-05T09:28:06;98237.56;;;28.11;40.66
60240;BME280;46102;39.012;-7.064;2023-06-05T09:30:07;98242.28;;;28.31;39.90
60240;BME280;46102;39.012;-7.064;2023-06-05T09:32:15;98242.88;;;28.38;39.46
60240;BME280;46102;39.012;-7.064;2023-06-05T09:34:31;98250.28;;;28.32;39.95
60240;BME280;46102;39.012;-7.064;2023-06-05T09:36:32;98238.47;;;28.37;39.93
60240;BME280;46102;39.012;-7.064;2023-06-05T09:38:37;98237.25;;;28.68;39.63
60240;BME280;46102;39.012;-7.064;2023-06-05T09:40:38;98235.34;;;28.77;39.45
60240;BME280;46102;39.012;-7.064;2023-06-05T09:42:39;98235.94;;;28.85;39.06
60240;BME280;46102;39.012;-7.064;2023-06-05T09:44:39;98232.72;;;29.12;38.44
60240;BME280;46102;39.012;-7.064;2023-06-05T09:46:51;98233.50;;;29.13;38.69
60240;BME280;46102;39.012;-7.064;2023-06-05T09:48:58;98231.31;;;29.04;38.69
60240;BME280;46102;39.012;-7.064;2023-06-05T09:51:09;98231.84;;;28.86;39.01
60240;BME280;46102;39.012;-7.064;2023-06-05T09:53:13;98238.41;;;28.83;39.24
60240;BME280;46102;39.012;-7.064;2023-06-05T09:55:15;98235.50;;;28.99;38.53
60240;BME280;46102;39.012;-7.064;2023-06-05T09:57:16;98239.06;;;29.16;38.74
60240;BME280;46102;39.012;-7.064;2023-06-05T09:59:20;98225.94;;;29.22;38.58
60240;BME280;46102;39.012;-7.064;2023-06-05T10:01:22;98219.50;;;29.22;38.27
60240;BME280;46102;39.012;-7.064;2023-06-05T10:03:23;98222.22;;;29.38;38.28
60240;BME280;46102;39.012;-7.064;2023-06-05T10:05:24;98226.53;;;29.68;37.65
60240;BME280;46102;39.012;-7.064;2023-06-05T10:07:27;98221.31;;;29.80;38.03
60240;BME280;46102;39.012;-7.064;2023-06-05T10:09:30;98221.81;;;30.00;37.65
60240;BME280;46102;39.012;-7.064;2023-06-05T10:11:32;98217.09;;;29.97;37.41
60240;BME280;46102;39.012;-7.064;2023-06-05T10:13:34;98218.97;;;30.13;37.38
60240;BME280;46102;39.012;-7.064;2023-06-05T10:15:36;98212.34;;;29.94;37.24
60240;BME280;46102;39.012;-7.064;2023-06-05T10:17:40;98212.25;;;29.85;37.41
60240;BME280;46102;39.012;-7.064;2023-06-05T10:19:42;98212.31;;;30.07;37.09
60240;BME280;46102;39.012;-7.064;2023-06-05T10:21:47;98202.13;;;30.09;37.12
60240;BME280;46102;39.012;-7.064;2023-06-05T10:23:52;98204.78;;;29.91;37.28
60240;BME280;46102;39.012;-7.064;2023-06-05T10:25:56;98210.06;;;30.02;37.49
60240;BME280;46102;39.012;-7.064;2023-06-05T10:32:41;98202.34;;;30.37;36.42
60240;BME280;46102;39.012;-7.064;2023-06-05T10:37:28;98193.00;;;30.94;35.56
60240;BME280;46102;39.012;-7.064;2023-06-05T10:39:30;98190.69;;;31.32;34.86
60240;BME280;46102;39.012;-7.064;2023-06-05T10:41:31;98198.16;;;31.17;35.17
60240;BME280;46102;39.012;-7.064;2023-06-05T10:43:35;98189.72;;;30.95;35.31
60240;BME280;46102;39.012;-7.064;2023-06-05T10:45:36;98196.81;;;30.78;35.65